Oneco, Florida
Current Conditions -  °F | °C
As of 2:53 AM on Saturday 25 Oct 2014 (Local Time) from KSRQ Reporting Station
Clear Clear  
Wind Chill: 63°   Ceiling: Unl
Heat Index: 63°   Visibility: 10mi
Dew Point: 57°   Wind: 6mph
Humidity: 81%   Direction: 50°NE
Pressure: 29.95"   Gusts: NA
Location:  27.45°N, 82.55°W
Report Text: KSRQ 250653Z 05005KT 10SM CLR 17/14 A2995 RMK AO2 SLP140 T01720139
Loading
Personal Weather Stations






























Interactive Weather Map
Tropical Storm Tracking
New forecast layout! Learn more

10-Day Weather Forecast

Advertisements
Track Severe Weather on mobile